sensor_id;sensor_type;location;lat;lon;timestamp;P1;durP1;ratioP1;P2;durP2;ratioP2
25936;SDS011;13733;51.178;4.450;2023-06-24T00:01:00;7.82;;;4.45;;
25936;SDS011;13733;51.178;4.450;2023-06-24T00:03:26;7.10;;;4.35;;
25936;SDS011;13733;51.178;4.450;2023-06-24T00:05:52;9.15;;;4.78;;
25936;SDS011;13733;51.178;4.450;2023-06-24T00:08:18;7.68;;;5.13;;
25936;SDS011;13733;51.178;4.450;2023-06-24T00:10:46;6.93;;;5.13;;
25936;SDS011;13733;51.178;4.450;2023-06-24T00:13:12;8.45;;;5.30;;
25936;SDS011;13733;51.178;4.450;2023-06-24T00:15:40;9.15;;;5.78;;
25936;SDS011;13733;51.178;4.450;2023-06-24T00:18:10;7.57;;;4.65;;
25936;SDS011;13733;51.178;4.450;2023-06-24T00:20:36;7.43;;;5.15;;
25936;SDS011;13733;51.178;4.450;2023-06-24T00:23:03;7.05;;;4.80;;
25936;SDS011;13733;51.178;4.450;2023-06-24T00:25:29;6.47;;;5.00;;
25936;SDS011;13733;51.178;4.450;2023-06-24T00:27:56;10.40;;;6.25;;
25936;SDS011;13733;51.178;4.450;2023-06-24T00:30:22;9.35;;;6.47;;
25936;SDS011;13733;51.178;4.450;2023-06-24T00:32:48;8.48;;;6.03;;
25936;SDS011;13733;51.178;4.450;2023-06-24T00:35:14;10.05;;;6.38;;
25936;SDS011;13733;51.178;4.450;2023-06-24T00:37:40;8.60;;;6.25;;
25936;SDS011;13733;51.178;4.450;2023-06-24T00:40:08;8.57;;;6.10;;
25936;SDS011;13733;51.178;4.450;2023-06-24T00:42:42;8.30;;;5.53;;
25936;SDS011;13733;51.178;4.450;2023-06-24T00:45:09;13.38;;;6.25;;
25936;SDS011;13733;51.178;4.450;2023-06-24T00:47:37;8.32;;;5.65;;
25936;SDS011;13733;51.178;4.450;2023-06-24T00:50:05;10.52;;;6.18;;
25936;SDS011;13733;51.178;4.450;2023-06-24T00:52:31;8.52;;;5.90;;
25936;SDS011;13733;51.178;4.450;2023-06-24T00:54:57;11.77;;;6.40;;
25936;SDS011;13733;51.178;4.450;2023-06-24T00:57:23;9.40;;;6.00;;
25936;SDS011;13733;51.178;4.450;2023-06-24T00:59:50;10.00;;;5.72;;
25936;SDS011;13733;51.178;4.450;2023-06-24T01:02:19;8.70;;;5.30;;
25936;SDS011;13733;51.178;4.450;2023-06-24T01:04:53;8.80;;;6.30;;
25936;SDS011;13733;51.178;4.450;2023-06-24T01:07:20;9.15;;;6.65;;
25936;SDS011;13733;51.178;4.450;2023-06-24T01:09:46;14.77;;;6.75;;
25936;SDS011;13733;51.178;4.450;2023-06-24T01:12:12;7.85;;;6.00;;
25936;SDS011;13733;51.178;4.450;2023-06-24T01:14:38;12.18;;;6.50;;
25936;SDS011;13733;51.178;4.450;2023-06-24T01:17:22;11.73;;;6.38;;
25936;SDS011;13733;51.178;4.450;2023-06-24T01:20:10;11.38;;;6.97;;
25936;SDS011;13733;51.178;4.450;2023-06-24T01:23:01;7.32;;;6.00;;
25936;SDS011;13733;51.178;4.450;2023-06-24T01:31:52;13.43;;;7.05;;
25936;SDS011;13733;51.178;4.450;2023-06-24T01:37:29;12.73;;;8.82;;
25936;SDS011;13733;51.178;4.450;2023-06-24T01:40:11;9.63;;;7.03;;
25936;SDS011;13733;51.178;4.450;2023-06-24T01:42:45;8.75;;;7.72;;
25936;SDS011;13733;51.178;4.450;2023-06-24T01:45:14;12.50;;;8.32;;
25936;SDS011;13733;51.178;4.450;2023-06-24T01:47:43;15.13;;;9.10;;
25936;SDS011;13733;51.178;4.450;2023-06-24T01:50:12;11.50;;;7.90;;
25936;SDS011;13733;51.178;4.450;2023-06-24T01:52:43;11.88;;;8.43;;
25936;SDS011;13733;51.178;4.450;2023-06-24T01:55:10;13.27;;;8.98;;
25936;SDS011;13733;51.178;4.450;2023-06-24T01:57:39;12.63;;;8.32;;
25936;SDS011;13733;51.178;4.450;2023-06-24T02:00:08;12.48;;;8.65;;
25936;SDS011;13733;51.178;4.450;2023-06-24T02:02:47;10.25;;;8.57;;
25936;SDS011;13733;51.178;4.450;2023-06-24T02:05:14;10.63;;;7.93;;
25936;SDS011;13733;51.178;4.450;2023-06-24T02:07:42;12.52;;;8.10;;
25936;SDS011;13733;51.178;4.450;2023-06-24T02:10:10;11.38;;;7.80;;
25936;SDS011;13733;51.178;4.450;2023-06-24T02:12:37;10.85;;;8.65;;
25936;SDS011;13733;51.178;4.450;2023-06-24T02:15:04;9.90;;;7.70;;
25936;SDS011;13733;51.178;4.450;2023-06-24T02:17:32;13.13;;;8.95;;
25936;SDS011;13733;51.178;4.450;2023-06-24T02:19:59;12.57;;;8.98;;
25936;SDS011;13733;51.178;4.450;2023-06-24T02:22:26;11.98;;;7.90;;
25936;SDS011;13733;51.178;4.450;2023-06-24T02:24:52;13.40;;;7.68;;
25936;SDS011;13733;51.178;4.450;2023-06-24T02:27:19;11.15;;;8.20;;
25936;SDS011;13733;51.178;4.450;2023-06-24T02:29:46;12.05;;;8.32;;
25936;SDS011;13733;51.178;4.450;2023-06-24T02:32:13;10.00;;;7.88;;
25936;SDS011;13733;51.178;4.450;2023-06-24T02:34:39;12.98;;;8.40;;
25936;SDS011;13733;51.178;4.450;2023-06-24T02:37:05;11.52;;;7.72;;
25936;SDS011;13733;51.178;4.450;2023-06-24T02:39:33;10.88;;;7.90;;
25936;SDS011;13733;51.178;4.450;2023-06-24T02:41:58;13.50;;;7.75;;
25936;SDS011;13733;51.178;4.450;2023-06-24T02:44:24;10.65;;;8.38;;
25936;SDS011;13733;51.178;4.450;2023-06-24T02:46:51;12.13;;;8.00;;
25936;SDS011;13733;51.178;4.450;2023-06-24T02:49:18;10.80;;;7.93;;
25936;SDS011;13733;51.178;4.450;2023-06-24T02:51:46;10.70;;;8.10;;
25936;SDS011;13733;51.178;4.450;2023-06-24T02:54:14;10.00;;;7.47;;
25936;SDS011;13733;51.178;4.450;2023-06-24T02:57:09;9.15;;;7.70;;
25936;SDS011;13733;51.178;4.450;2023-06-24T02:59:55;12.80;;;7.90;;
25936;SDS011;13733;51.178;4.450;2023-06-24T03:02:25;14.57;;;7.60;;
25936;SDS011;13733;51.178;4.450;2023-06-24T03:04:51;11.98;;;7.70;;
25936;SDS011;13733;51.178;4.450;2023-06-24T03:07:17;9.95;;;7.68;;
25936;SDS011;13733;51.178;4.450;2023-06-24T03:09:46;11.23;;;7.55;;
25936;SDS011;13733;51.178;4.450;2023-06-24T03:12:12;8.57;;;6.80;;
25936;SDS011;13733;51.178;4.450;2023-06-24T03:14:41;10.50;;;7.18;;
25936;SDS011;13733;51.178;4.450;2023-06-24T03:17:06;9.00;;;7.18;;
25936;SDS011;13733;51.178;4.450;2023-06-24T03:19:34;10.13;;;7.38;;
25936;SDS011;13733;51.178;4.450;2023-06-24T03:21:59;9.90;;;7.45;;
25936;SDS011;13733;51.178;4.450;2023-06-24T03:24:25;11.93;;;7.35;;
25936;SDS011;13733;51.178;4.450;2023-06-24T03:26:52;10.52;;;7.25;;
25936;SDS011;13733;51.178;4.450;2023-06-24T03:29:24;10.63;;;7.35;;
25936;SDS011;13733;51.178;4.450;2023-06-24T03:31:59;10.35;;;7.43;;
25936;SDS011;13733;51.178;4.450;2023-06-24T03:34:26;10.60;;;6.88;;
25936;SDS011;13733;51.178;4.450;2023-06-24T03:36:53;8.43;;;7.05;;
25936;SDS011;13733;51.178;4.450;2023-06-24T03:39:19;8.27;;;6.43;;
25936;SDS011;13733;51.178;4.450;2023-06-24T03:41:46;11.07;;;7.38;;
25936;SDS011;13733;51.178;4.450;2023-06-24T03:44:13;9.30;;;7.45;;
25936;SDS011;13733;51.178;4.450;2023-06-24T03:46:40;10.50;;;6.88;;
25936;SDS011;13733;51.178;4.450;2023-06-24T03:49:08;10.57;;;6.60;;
25936;SDS011;13733;51.178;4.450;2023-06-24T03:51:34;11.45;;;6.65;;
25936;SDS011;13733;51.178;4.450;2023-06-24T03:54:00;8.07;;;6.80;;
25936;SDS011;13733;51.178;4.450;2023-06-24T03:56:26;10.23;;;6.50;;
25936;SDS011;13733;51.178;4.450;2023-06-24T03:58:52;8.60;;;6.90;;
25936;SDS011;13733;51.178;4.450;2023-06-24T04:01:19;9.93;;;6.28;;
25936;SDS011;13733;51.178;4.450;2023-06-24T04:03:45;9.25;;;6.70;;
25936;SDS011;13733;51.178;4.450;2023-06-24T04:06:11;10.77;;;6.72;;
25936;SDS011;13733;51.178;4.450;2023-06-24T04:08:37;10.25;;;6.55;;
25936;SDS011;13733;51.178;4.450;2023-06-24T04:11:08;9.90;;;6.80;;
25936;SDS011;13733;51.178;4.450;2023-06-24T04:13:34;7.25;;;6.03;;
25936;SDS011;13733;51.178;4.450;2023-06-24T04:16:00;6.47;;;5.78;;
25936;SDS011;13733;51.178;4.450;2023-06-24T04:18:26;9.70;;;6.25;;
25936;SDS011;13733;51.178;4.450;2023-06-24T04:20:53;9.35;;;6.28;;
25936;SDS011;13733;51.178;4.450;2023-06-24T04:23:19;9.30;;;6.68;;
25936;SDS011;13733;51.178;4.450;2023-06-24T04:25:47;12.02;;;7.10;;
25936;SDS011;13733;51.178;4.450;2023-06-24T04:28:12;9.07;;;6.15;;
25936;SDS011;13733;51.178;4.450;2023-06-24T04:30:38;10.75;;;6.45;;
25936;SDS011;13733;51.178;4.450;2023-06-24T04:33:05;7.80;;;5.97;;
25936;SDS011;13733;51.178;4.450;2023-06-24T04:35:31;8.52;;;6.18;;
25936;SDS011;13733;51.178;4.450;2023-06-24T04:37:57;7.70;;;5.88;;
25936;SDS011;13733;51.178;4.450;2023-06-24T04:40:24;8.00;;;5.75;;
25936;SDS011;13733;51.178;4.450;2023-06-24T04:42:50;7.20;;;5.53;;
25936;SDS011;13733;51.178;4.450;2023-06-24T04:45:17;7.65;;;5.75;;
25936;SDS011;13733;51.178;4.450;2023-06-24T04:47:43;11.32;;;6.35;;
25936;SDS011;13733;51.178;4.450;2023-06-24T04:50:09;8.63;;;5.88;;
25936;SDS011;13733;51.178;4.450;2023-06-24T04:52:36;9.93;;;5.72;;
25936;SDS011;13733;51.178;4.450;2023-06-24T04:55:02;8.02;;;5.57;;
25936;SDS011;13733;51.178;4.450;2023-06-24T04:57:31;11.35;;;5.15;;
25936;SDS011;13733;51.178;4.450;2023-06-24T04:59:58;9.20;;;5.40;;
25936;SDS011;13733;51.178;4.450;2023-06-24T05:02:24;8.50;;;4.85;;
25936;SDS011;13733;51.178;4.450;2023-06-24T05:04:51;7.53;;;5.18;;
25936;SDS011;13733;51.178;4.450;2023-06-24T05:07:17;6.72;;;4.97;;
25936;SDS011;13733;51.178;4.450;2023-06-24T05:09:44;8.40;;;5.20;;
25936;SDS011;13733;51.178;4.450;2023-06-24T05:12:12;7.80;;;5.10;;
25936;SDS011;13733;51.178;4.450;2023-06-24T05:14:38;6.93;;;5.43;;
25936;SDS011;13733;51.178;4.450;2023-06-24T05:17:03;7.90;;;5.22;;
25936;SDS011;13733;51.178;4.450;2023-06-24T05:19:30;6.00;;;4.65;;
25936;SDS011;13733;51.178;4.450;2023-06-24T05:21:56;7.03;;;5.25;;
25936;SDS011;13733;51.178;4.450;2023-06-24T05:24:26;6.10;;;4.72;;
25936;SDS011;13733;51.178;4.450;2023-06-24T05:26:52;6.97;;;5.55;;
25936;SDS011;13733;51.178;4.450;2023-06-24T05:29:19;8.57;;;5.68;;
25936;SDS011;13733;51.178;4.450;2023-06-24T05:31:47;8.63;;;5.75;;
25936;SDS011;13733;51.178;4.450;2023-06-24T05:34:14;7.90;;;5.78;;
25936;SDS011;13733;51.178;4.450;2023-06-24T05:36:42;7.03;;;5.65;;
25936;SDS011;13733;51.178;4.450;2023-06-24T05:39:07;7.63;;;5.55;;
25936;SDS011;13733;51.178;4.450;2023-06-24T05:41:36;6.78;;;5.47;;
25936;SDS011;13733;51.178;4.450;2023-06-24T05:44:02;6.53;;;5.10;;
25936;SDS011;13733;51.178;4.450;2023-06-24T05:48:59;7.50;;;6.00;;
25936;SDS011;13733;51.178;4.450;2023-06-24T05:51:24;8.20;;;5.97;;
25936;SDS011;13733;51.178;4.450;2023-06-24T05:53:51;7.85;;;6.10;;
25936;SDS011;13733;51.178;4.450;2023-06-24T05:56:17;7.10;;;6.07;;
25936;SDS011;13733;51.178;4.450;2023-06-24T05:58:44;11.60;;;6.13;;
25936;SDS011;13733;51.178;4.450;2023-06-24T06:01:10;10.35;;;5.90;;
25936;SDS011;13733;51.178;4.450;2023-06-24T06:03:36;9.82;;;5.78;;
25936;SDS011;13733;51.178;4.450;2023-06-24T06:06:03;8.95;;;6.25;;
25936;SDS011;13733;51.178;4.450;2023-06-24T06:08:29;9.27;;;6.32;;
25936;SDS011;13733;51.178;4.450;2023-06-24T06:10:55;10.32;;;6.70;;
25936;SDS011;13733;51.178;4.450;2023-06-24T06:13:21;11.13;;;6.43;;
25936;SDS011;13733;51.178;4.450;2023-06-24T06:15:46;12.02;;;7.10;;
25936;SDS011;13733;51.178;4.450;2023-06-24T06:18:12;10.43;;;6.82;;
25936;SDS011;13733;51.178;4.450;2023-06-24T06:20:38;10.88;;;6.75;;
25936;SDS011;13733;51.178;4.450;2023-06-24T06:23:04;10.80;;;6.72;;
25936;SDS011;13733;51.178;4.450;2023-06-24T06:25:29;10.32;;;6.90;;
25936;SDS011;13733;51.178;4.450;2023-06-24T06:27:55;8.75;;;6.15;;
25936;SDS011;13733;51.178;4.450;2023-06-24T06:30:21;7.75;;;6.32;;
25936;SDS011;13733;51.178;4.450;2023-06-24T06:32:47;11.73;;;7.07;;
25936;SDS011;13733;51.178;4.450;2023-06-24T06:35:13;7.50;;;6.53;;
25936;SDS011;13733;51.178;4.450;2023-06-24T06:37:38;10.77;;;6.63;;
25936;SDS011;13733;51.178;4.450;2023-06-24T06:40:04;7.47;;;6.30;;
25936;SDS011;13733;51.178;4.450;2023-06-24T06:42:30;12.50;;;6.40;;
25936;SDS011;13733;51.178;4.450;2023-06-24T06:44:56;10.70;;;7.07;;
25936;SDS011;13733;51.178;4.450;2023-06-24T06:47:22;11.88;;;6.90;;
25936;SDS011;13733;51.178;4.450;2023-06-24T06:49:48;10.10;;;6.43;;
25936;SDS011;13733;51.178;4.450;2023-06-24T06:52:13;10.68;;;6.55;;
25936;SDS011;13733;51.178;4.450;2023-06-24T06:54:39;8.80;;;6.50;;
25936;SDS011;13733;51.178;4.450;2023-06-24T06:57:05;10.23;;;6.80;;
25936;SDS011;13733;51.178;4.450;2023-06-24T06:59:31;10.23;;;6.82;;
25936;SDS011;13733;51.178;4.450;2023-06-24T07:01:57;8.38;;;6.20;;
25936;SDS011;13733;51.178;4.450;2023-06-24T07:04:23;9.02;;;6.47;;
25936;SDS011;13733;51.178;4.450;2023-06-24T07:06:49;11.02;;;6.95;;
25936;SDS011;13733;51.178;4.450;2023-06-24T07:09:15;10.23;;;6.68;;
25936;SDS011;13733;51.178;4.450;2023-06-24T07:11:41;12.15;;;6.45;;
25936;SDS011;13733;51.178;4.450;2023-06-24T07:14:08;7.85;;;6.25;;
25936;SDS011;13733;51.178;4.450;2023-06-24T07:16:33;9.98;;;6.22;;
25936;SDS011;13733;51.178;4.450;2023-06-24T07:19:00;9.73;;;6.38;;
25936;SDS011;13733;51.178;4.450;2023-06-24T07:21:26;12.05;;;6.85;;
25936;SDS011;13733;51.178;4.450;2023-06-24T07:23:52;10.75;;;7.20;;
25936;SDS011;13733;51.178;4.450;2023-06-24T07:26:17;9.82;;;6.78;;
25936;SDS011;13733;51.178;4.450;2023-06-24T07:28:43;9.55;;;6.47;;
25936;SDS011;13733;51.178;4.450;2023-06-24T07:31:09;11.25;;;6.68;;
25936;SDS011;13733;51.178;4.450;2023-06-24T07:33:35;8.70;;;5.93;;
25936;SDS011;13733;51.178;4.450;2023-06-24T07:36:01;9.73;;;6.47;;
25936;SDS011;13733;51.178;4.450;2023-06-24T07:38:28;16.20;;;6.95;;
25936;SDS011;13733;51.178;4.450;2023-06-24T07:40:54;14.00;;;7.63;;
25936;SDS011;13733;51.178;4.450;2023-06-24T07:43:19;8.95;;;6.78;;
25936;SDS011;13733;51.178;4.450;2023-06-24T07:45:45;10.23;;;6.78;;
25936;SDS011;13733;51.178;4.450;2023-06-24T07:48:11;10.10;;;6.82;;
25936;SDS011;13733;51.178;4.450;2023-06-24T07:50:37;10.05;;;6.43;;
25936;SDS011;13733;51.178;4.450;2023-06-24T07:53:04;11.18;;;6.80;;
25936;SDS011;13733;51.178;4.450;2023-06-24T07:55:30;11.07;;;6.55;;
25936;SDS011;13733;51.178;4.450;2023-06-24T07:57:56;7.97;;;5.85;;
25936;SDS011;13733;51.178;4.450;2023-06-24T08:00:23;8.80;;;6.07;;
25936;SDS011;13733;51.178;4.450;2023-06-24T08:02:49;10.88;;;6.47;;
25936;SDS011;13733;51.178;4.450;2023-06-24T08:05:15;8.57;;;5.97;;
25936;SDS011;13733;51.178;4.450;2023-06-24T08:07:43;11.63;;;6.50;;
25936;SDS011;13733;51.178;4.450;2023-06-24T08:10:09;8.48;;;5.07;;
25936;SDS011;13733;51.178;4.450;2023-06-24T08:12:35;9.85;;;6.80;;
25936;SDS011;13733;51.178;4.450;2023-06-24T08:15:01;8.45;;;5.95;;
25936;SDS011;13733;51.178;4.450;2023-06-24T08:17:27;10.68;;;7.03;;
25936;SDS011;13733;51.178;4.450;2023-06-24T08:19:53;9.75;;;5.95;;
25936;SDS011;13733;51.178;4.450;2023-06-24T08:22:19;10.65;;;5.65;;
25936;SDS011;13733;51.178;4.450;2023-06-24T08:24:44;6.10;;;5.35;;
25936;SDS011;13733;51.178;4.450;2023-06-24T08:27:10;7.72;;;6.10;;
25936;SDS011;13733;51.178;4.450;2023-06-24T08:29:36;7.43;;;5.68;;
25936;SDS011;13733;51.178;4.450;2023-06-24T08:32:03;5.78;;;5.22;;
25936;SDS011;13733;51.178;4.450;2023-06-24T08:34:31;8.60;;;5.13;;
25936;SDS011;13733;51.178;4.450;2023-06-24T08:36:58;8.85;;;5.70;;
25936;SDS011;13733;51.178;4.450;2023-06-24T08:39:23;7.45;;;5.90;;
25936;SDS011;13733;51.178;4.450;2023-06-24T08:41:49;9.50;;;5.15;;
25936;SDS011;13733;51.178;4.450;2023-06-24T08:44:15;5.47;;;3.72;;
25936;SDS011;13733;51.178;4.450;2023-06-24T08:46:41;8.05;;;4.03;;
25936;SDS011;13733;51.178;4.450;2023-06-24T08:51:54;6.05;;;5.13;;
25936;SDS011;13733;51.178;4.450;2023-06-24T08:54:23;9.05;;;5.38;;
25936;SDS011;13733;51.178;4.450;2023-06-24T08:56:50;7.05;;;5.00;;
25936;SDS011;13733;51.178;4.450;2023-06-24T08:59:17;6.75;;;4.82;;
25936;SDS011;13733;51.178;4.450;2023-06-24T09:01:46;9.00;;;4.68;;
25936;SDS011;13733;51.178;4.450;2023-06-24T09:04:12;11.38;;;5.40;;
25936;SDS011;13733;51.178;4.450;2023-06-24T09:06:38;6.68;;;4.65;;
25936;SDS011;13733;51.178;4.450;2023-06-24T09:09:04;5.47;;;3.58;;
25936;SDS011;13733;51.178;4.450;2023-06-24T09:11:30;6.03;;;3.60;;
25936;SDS011;13733;51.178;4.450;2023-06-24T09:14:00;6.20;;;3.40;;
25936;SDS011;13733;51.178;4.450;2023-06-24T09:16:26;4.60;;;3.58;;
25936;SDS011;13733;51.178;4.450;2023-06-24T09:18:53;6.38;;;3.40;;
25936;SDS011;13733;51.178;4.450;2023-06-24T09:21:24;9.65;;;4.55;;
25936;SDS011;13733;51.178;4.450;2023-06-24T09:23:54;7.57;;;4.07;;
25936;SDS011;13733;51.178;4.450;2023-06-24T09:26:26;8.15;;;3.92;;
25936;SDS011;13733;51.178;4.450;2023-06-24T09:28:54;8.13;;;4.50;;
25936;SDS011;13733;51.178;4.450;2023-06-24T09:31:22;7.22;;;3.75;;
25936;SDS011;13733;51.178;4.450;2023-06-24T09:33:48;7.07;;;3.25;;
25936;SDS011;13733;51.178;4.450;2023-06-24T09:36:14;3.97;;;3.00;;
25936;SDS011;13733;51.178;4.450;2023-06-24T09:38:44;7.15;;;3.75;;
25936;SDS011;13733;51.178;4.450;2023-06-24T09:41:10;5.35;;;3.90;;
25936;SDS011;13733;51.178;4.450;2023-06-24T09:43:37;7.95;;;2.97;;
25936;SDS011;13733;51.178;4.450;2023-06-24T09:46:06;5.90;;;3.20;;
25936;SDS011;13733;51.178;4.450;2023-06-24T09:48:33;7.57;;;3.30;;
25936;SDS011;13733;51.178;4.450;2023-06-24T09:51:00;6.32;;;3.83;;
25936;SDS011;13733;51.178;4.450;2023-06-24T09:53:30;4.00;;;3.10;;
25936;SDS011;13733;51.178;4.450;2023-06-24T09:55:58;6.10;;;2.88;;
25936;SDS011;13733;51.178;4.450;2023-06-24T09:58:25;3.88;;;3.15;;
25936;SDS011;13733;51.178;4.450;2023-06-24T10:00:53;5.50;;;2.88;;
25936;SDS011;13733;51.178;4.450;2023-06-24T10:03:20;3.08;;;2.50;;
25936;SDS011;13733;51.178;4.450;2023-06-24T10:05:46;4.15;;;2.80;;
25936;SDS011;13733;51.178;4.450;2023-06-24T10:08:13;4.53;;;3.10;;
25936;SDS011;13733;51.178;4.450;2023-06-24T10:10:40;4.55;;;2.67;;
25936;SDS011;13733;51.178;4.450;2023-06-24T10:13:06;3.80;;;2.65;;
25936;SDS011;13733;51.178;4.450;2023-06-24T10:15:32;5.10;;;2.90;;
25936;SDS011;13733;51.178;4.450;2023-06-24T10:18:03;6.53;;;2.92;;
25936;SDS011;13733;51.178;4.450;2023-06-24T10:20:49;3.83;;;2.90;;
25936;SDS011;13733;51.178;4.450;2023-06-24T10:23:14;3.17;;;2.60;;
25936;SDS011;13733;51.178;4.450;2023-06-24T10:25:40;4.85;;;2.50;;
25936;SDS011;13733;51.178;4.450;2023-06-24T10:28:06;3.22;;;2.50;;
25936;SDS011;13733;51.178;4.450;2023-06-24T10:30:32;4.25;;;2.80;;
25936;SDS011;13733;51.178;4.450;2023-06-24T10:32:58;3.70;;;2.75;;
25936;SDS011;13733;51.178;4.450;2023-06-24T10:35:24;4.63;;;2.78;;
25936;SDS011;13733;51.178;4.450;2023-06-24T10:37:56;6.93;;;2.60;;
25936;SDS011;13733;51.178;4.450;2023-06-24T10:40:38;4.72;;;2.53;;
25936;SDS011;13733;51.178;4.450;2023-06-24T10:45:52;6.90;;;2.78;;
25936;SDS011;13733;51.178;4.450;2023-06-24T10:48:19;5.35;;;2.80;;
25936;SDS011;13733;51.178;4.450;2023-06-24T10:50:45;4.30;;;2.55;;
25936;SDS011;13733;51.178;4.450;2023-06-24T10:53:12;4.28;;;2.65;;
25936;SDS011;13733;51.178;4.450;2023-06-24T10:55:38;3.90;;;2.38;;
25936;SDS011;13733;51.178;4.450;2023-06-24T10:58:11;5.68;;;2.50;;
25936;SDS011;13733;51.178;4.450;2023-06-24T11:00:39;4.55;;;2.72;;
25936;SDS011;13733;51.178;4.450;2023-06-24T11:05:41;5.13;;;2.78;;
25936;SDS011;13733;51.178;4.450;2023-06-24T11:08:08;4.20;;;2.65;;
25936;SDS011;13733;51.178;4.450;2023-06-24T11:10:45;4.25;;;2.55;;
25936;SDS011;13733;51.178;4.450;2023-06-24T11:13:12;7.32;;;2.55;;
25936;SDS011;13733;51.178;4.450;2023-06-24T11:15:39;8.07;;;2.95;;
25936;SDS011;13733;51.178;4.450;2023-06-24T11:18:09;4.82;;;2.58;;
25936;SDS011;13733;51.178;4.450;2023-06-24T11:20:38;6.30;;;2.92;;
25936;SDS011;13733;51.178;4.450;2023-06-24T11:23:08;4.15;;;2.45;;
25936;SDS011;13733;51.178;4.450;2023-06-24T11:25:38;2.75;;;2.47;;
25936;SDS011;13733;51.178;4.450;2023-06-24T11:28:05;3.45;;;2.45;;
25936;SDS011;13733;51.178;4.450;2023-06-24T11:30:38;3.20;;;2.50;;
25936;SDS011;13733;51.178;4.450;2023-06-24T11:33:03;3.15;;;2.40;;
25936;SDS011;13733;51.178;4.450;2023-06-24T11:35:30;9.02;;;2.92;;
25936;SDS011;13733;51.178;4.450;2023-06-24T11:38:00;5.85;;;2.65;;
25936;SDS011;13733;51.178;4.450;2023-06-24T11:40:26;2.70;;;2.50;;
25936;SDS011;13733;51.178;4.450;2023-06-24T11:42:51;6.07;;;2.60;;
25936;SDS011;13733;51.178;4.450;2023-06-24T11:45:21;2.55;;;2.25;;
25936;SDS011;13733;51.178;4.450;2023-06-24T11:47:47;2.65;;;2.33;;
25936;SDS011;13733;51.178;4.450;2023-06-24T11:50:17;2.42;;;2.15;;
25936;SDS011;13733;51.178;4.450;2023-06-24T11:52:50;3.85;;;2.10;;
25936;SDS011;13733;51.178;4.450;2023-06-24T12:00:14;3.40;;;2.38;;
25936;SDS011;13733;51.178;4.450;2023-06-24T12:02:41;2.55;;;2.20;;
25936;SDS011;13733;51.178;4.450;2023-06-24T12:05:07;3.25;;;2.10;;
25936;SDS011;13733;51.178;4.450;2023-06-24T12:07:33;2.58;;;2.08;;
25936;SDS011;13733;51.178;4.450;2023-06-24T12:09:59;2.50;;;2.30;;
25936;SDS011;13733;51.178;4.450;2023-06-24T12:12:24;4.10;;;2.17;;
25936;SDS011;13733;51.178;4.450;2023-06-24T12:14:50;4.68;;;2.50;;
25936;SDS011;13733;51.178;4.450;2023-06-24T12:17:16;5.25;;;2.45;;
25936;SDS011;13733;51.178;4.450;2023-06-24T12:19:41;3.15;;;2.40;;
25936;SDS011;13733;51.178;4.450;2023-06-24T12:22:07;2.63;;;2.28;;
25936;SDS011;13733;51.178;4.450;2023-06-24T12:24:33;2.40;;;2.20;;
25936;SDS011;13733;51.178;4.450;2023-06-24T12:26:59;2.33;;;1.90;;
25936;SDS011;13733;51.178;4.450;2023-06-24T12:29:25;5.07;;;2.45;;
25936;SDS011;13733;51.178;4.450;2023-06-24T12:31:51;3.85;;;2.10;;
25936;SDS011;13733;51.178;4.450;2023-06-24T12:34:16;3.45;;;2.42;;
25936;SDS011;13733;51.178;4.450;2023-06-24T12:36:42;3.58;;;2.13;;
25936;SDS011;13733;51.178;4.450;2023-06-24T12:39:08;4.68;;;2.58;;
25936;SDS011;13733;51.178;4.450;2023-06-24T12:41:33;3.92;;;2.33;;
25936;SDS011;13733;51.178;4.450;2023-06-24T12:43:59;3.33;;;2.53;;
25936;SDS011;13733;51.178;4.450;2023-06-24T12:46:25;3.10;;;2.25;;
25936;SDS011;13733;51.178;4.450;2023-06-24T12:48:51;4.93;;;2.20;;
25936;SDS011;13733;51.178;4.450;2023-06-24T12:51:16;4.68;;;2.30;;
25936;SDS011;13733;51.178;4.450;2023-06-24T12:53:42;3.08;;;2.42;;
25936;SDS011;13733;51.178;4.450;2023-06-24T12:56:08;2.88;;;2.20;;
25936;SDS011;13733;51.178;4.450;2023-06-24T12:58:33;3.35;;;2.50;;
25936;SDS011;13733;51.178;4.450;2023-06-24T13:00:59;2.15;;;2.05;;
25936;SDS011;13733;51.178;4.450;2023-06-24T13:03:25;4.53;;;2.30;;
25936;SDS011;13733;51.178;4.450;2023-06-24T13:05:51;3.60;;;2.30;;
25936;SDS011;13733;51.178;4.450;2023-06-24T13:08:16;4.93;;;2.20;;
25936;SDS011;13733;51.178;4.450;2023-06-24T13:10:42;2.92;;;2.03;;
25936;SDS011;13733;51.178;4.450;2023-06-24T13:13:08;2.80;;;2.30;;
25936;SDS011;13733;51.178;4.450;2023-06-24T13:15:34;2.55;;;2.33;;
25936;SDS011;13733;51.178;4.450;2023-06-24T13:18:01;4.60;;;2.38;;
25936;SDS011;13733;51.178;4.450;2023-06-24T13:20:27;3.55;;;1.95;;
25936;SDS011;13733;51.178;4.450;2023-06-24T13:22:53;2.42;;;2.20;;
25936;SDS011;13733;51.178;4.450;2023-06-24T13:25:19;4.28;;;2.20;;
25936;SDS011;13733;51.178;4.450;2023-06-24T13:27:45;3.28;;;2.25;;
25936;SDS011;13733;51.178;4.450;2023-06-24T13:30:11;4.55;;;2.28;;
25936;SDS011;13733;51.178;4.450;2023-06-24T13:35:05;3.00;;;2.40;;
25936;SDS011;13733;51.178;4.450;2023-06-24T13:37:31;3.15;;;2.47;;
25936;SDS011;13733;51.178;4.450;2023-06-24T13:39:57;2.72;;;2.28;;
25936;SDS011;13733;51.178;4.450;2023-06-24T13:42:23;5.82;;;2.60;;
25936;SDS011;13733;51.178;4.450;2023-06-24T13:44:51;5.90;;;2.67;;
25936;SDS011;13733;51.178;4.450;2023-06-24T13:47:16;2.90;;;2.60;;
25936;SDS011;13733;51.178;4.450;2023-06-24T13:49:42;3.30;;;2.45;;
25936;SDS011;13733;51.178;4.450;2023-06-24T13:52:09;3.22;;;2.50;;
25936;SDS011;13733;51.178;4.450;2023-06-24T13:54:35;3.35;;;2.38;;
25936;SDS011;13733;51.178;4.450;2023-06-24T13:57:05;3.08;;;2.58;;
25936;SDS011;13733;51.178;4.450;2023-06-24T13:59:35;5.05;;;2.35;;
25936;SDS011;13733;51.178;4.450;2023-06-24T14:02:02;3.17;;;2.47;;
25936;SDS011;13733;51.178;4.450;2023-06-24T14:04:30;3.63;;;2.72;;
25936;SDS011;13733;51.178;4.450;2023-06-24T14:06:55;8.95;;;2.92;;
25936;SDS011;13733;51.178;4.450;2023-06-24T14:09:21;5.60;;;2.67;;
25936;SDS011;13733;51.178;4.450;2023-06-24T14:11:47;3.17;;;2.40;;
25936;SDS011;13733;51.178;4.450;2023-06-24T14:14:13;3.55;;;2.40;;
25936;SDS011;13733;51.178;4.450;2023-06-24T14:16:39;6.00;;;2.42;;
25936;SDS011;13733;51.178;4.450;2023-06-24T14:19:04;3.38;;;2.13;;
25936;SDS011;13733;51.178;4.450;2023-06-24T14:21:30;4.78;;;3.00;;
25936;SDS011;13733;51.178;4.450;2023-06-24T14:23:57;4.57;;;2.88;;
25936;SDS011;13733;51.178;4.450;2023-06-24T14:26:23;2.50;;;2.30;;
25936;SDS011;13733;51.178;4.450;2023-06-24T14:28:48;3.22;;;2.80;;
25936;SDS011;13733;51.178;4.450;2023-06-24T14:31:14;4.28;;;2.55;;
25936;SDS011;13733;51.178;4.450;2023-06-24T14:33:40;5.53;;;2.95;;
25936;SDS011;13733;51.178;4.450;2023-06-24T14:36:06;3.38;;;2.40;;
25936;SDS011;13733;51.178;4.450;2023-06-24T14:41:01;2.78;;;2.58;;
25936;SDS011;13733;51.178;4.450;2023-06-24T14:43:27;3.92;;;2.75;;
25936;SDS011;13733;51.178;4.450;2023-06-24T14:45:54;5.07;;;2.53;;
25936;SDS011;13733;51.178;4.450;2023-06-24T14:48:19;3.13;;;2.53;;
25936;SDS011;13733;51.178;4.450;2023-06-24T14:50:45;3.13;;;2.40;;
25936;SDS011;13733;51.178;4.450;2023-06-24T14:53:11;3.58;;;2.45;;
25936;SDS011;13733;51.178;4.450;2023-06-24T14:55:36;2.85;;;2.65;;
25936;SDS011;13733;51.178;4.450;2023-06-24T14:58:02;3.78;;;2.90;;
25936;SDS011;13733;51.178;4.450;2023-06-24T15:00:28;3.47;;;2.90;;
25936;SDS011;13733;51.178;4.450;2023-06-24T15:02:54;3.22;;;2.90;;
25936;SDS011;13733;51.178;4.450;2023-06-24T15:05:19;3.63;;;3.15;;
25936;SDS011;13733;51.178;4.450;2023-06-24T15:07:45;7.60;;;3.17;;
25936;SDS011;13733;51.178;4.450;2023-06-24T15:10:11;2.85;;;2.60;;
25936;SDS011;13733;51.178;4.450;2023-06-24T15:12:36;3.53;;;3.22;;